Strona główna
METAR-TAF:

METAR-TAF

Lotnisko :

Wientian, Laos

Port lotniczy Wientian-Wattay

Szerokość geograficzna: 17-57N, Długość geograficzna: 102-34E, wysokość: 171 m

Aktualna obserwacja pogody

Raport powstał 49 minut temu, godzina 05:00 UTC
Wiatr 4 kt od południowo-południowy wschód
Temperatura 27°C
Wilgotność 54%
Ciśnienie 1013 hPa
Widzialność: 7000 m

METAR: VLVT 180500Z 16004KT 7000 NSC 27/17 Q1013 NOSIG

czas: 12:49 (05:49 UTC)

Prognoza

Raport powstał 49 minut temu, godzina 05:00 UTC
Prognoza ważna od 18 godzina 06 UTC do 19 godzina 06 UTC
Wiatr 6 kt od wschodnio-południowy wschód
Widzialność: 8000 m
Mało chmury na wysokości 2000 ft
Rozproszone chmury na wysokości 5000 ft
Mało chmury na wysokości 20000 ft
Przejściowo
od 18 godzina 12 UTC do 18 godzina 18 UTC
Widzialność: 3000 m
Mało chmury na wysokości 5000 ft
Mało chmury na wysokości 20000 ft
zamglenie

TAF: VLVT 180500Z 1806/1906 12006KT 8000 FEW020 SCT050 FEW200 TEMPO 1812/1818 3000 BR FEW050 FEW200

Obserwacja i prognoza pogody dla ponad 4000 lotnisk (raport METAR i TAF).

Dostępne stacje oznaczono żółtymi i czerwonymi punktami na mapie.

Najedź kursorem aby zobaczyć nazwę stacji.

Kliknij aby zobaczyć obserwacje i prognozy pogody.

Aby zmienić mapę: kliknij na zielony przycisk z czarnym krzyżykiem, aby powiększyć; na zielony przycisk z myślnikiem, aby pomniejszyć; na zielone strzałki, aby przejść do map sąsiednich.


METAR-TAF: